createdAt,value
2023-09-28T00:01:50.571Z,19.47
2023-09-28T00:04:53.121Z,19.36
2023-09-28T00:07:56.658Z,19.36
2023-09-28T00:11:02.343Z,19.39
2023-09-28T00:14:05.652Z,19.34
2023-09-28T00:17:10.263Z,19.33
2023-09-28T00:20:19.572Z,19.28
2023-09-28T00:23:22.984Z,19.19
2023-09-28T00:26:25.162Z,19.11
2023-09-28T00:29:27.932Z,19.12
2023-09-28T00:32:30.153Z,19.12
2023-09-28T00:35:32.610Z,19.15
2023-09-28T00:38:34.828Z,19.14
2023-09-28T00:41:37.299Z,19.11
2023-09-28T00:44:39.365Z,19.08
2023-09-28T00:47:42.133Z,19.10
2023-09-28T00:50:44.503Z,19.00
2023-09-28T00:53:46.931Z,18.98
2023-09-28T00:56:49.861Z,19.00
2023-09-28T00:59:52.574Z,18.91
2023-09-28T01:02:57.169Z,18.90
2023-09-28T01:05:59.848Z,18.87
2023-09-28T01:09:02.758Z,18.84
2023-09-28T01:12:08.168Z,18.81
2023-09-28T01:15:11.478Z,18.80
2023-09-28T01:18:16.729Z,18.73
2023-09-28T01:21:20.135Z,18.66
2023-09-28T01:24:23.202Z,18.59
2023-09-28T01:27:25.896Z,18.60
2023-09-28T01:30:33.749Z,18.61
2023-09-28T01:33:35.948Z,18.56
2023-09-28T01:36:38.512Z,18.56
2023-09-28T01:39:40.686Z,18.51
2023-09-28T01:42:43.118Z,18.45
2023-09-28T01:45:45.590Z,18.47
2023-09-28T01:48:48.095Z,18.40
2023-09-28T01:51:50.251Z,18.36
2023-09-28T01:54:52.644Z,18.38
2023-09-28T01:57:54.776Z,18.35
2023-09-28T02:00:58.002Z,18.31
2023-09-28T02:04:00.594Z,18.29
2023-09-28T02:07:02.736Z,18.27
2023-09-28T02:10:06.014Z,18.22
2023-09-28T02:13:08.115Z,18.20
2023-09-28T02:16:12.746Z,18.19
2023-09-28T02:19:17.517Z,18.21
2023-09-28T02:22:20.891Z,18.11
2023-09-28T02:25:25.916Z,18.09
2023-09-28T02:28:28.417Z,18.10
2023-09-28T02:31:32.457Z,18.08
2023-09-28T02:34:34.995Z,18.07
2023-09-28T02:37:38.384Z,18.08
2023-09-28T02:40:40.886Z,18.02
2023-09-28T02:43:43.306Z,17.98
2023-09-28T02:46:45.777Z,17.99
2023-09-28T02:49:48.648Z,18.00
2023-09-28T02:52:53.526Z,17.99
2023-09-28T02:55:55.948Z,17.95
2023-09-28T02:58:58.430Z,17.90
2023-09-28T03:02:00.673Z,17.89
2023-09-28T03:05:03.757Z,17.83
2023-09-28T03:08:10.460Z,17.83
2023-09-28T03:11:14.162Z,17.81
2023-09-28T03:14:16.483Z,17.74
2023-09-28T03:17:18.987Z,17.72
2023-09-28T03:20:22.999Z,17.73
2023-09-28T03:23:25.765Z,17.72
2023-09-28T03:26:31.648Z,17.72
2023-09-28T03:29:34.199Z,17.66
2023-09-28T03:32:36.627Z,17.69
2023-09-28T03:35:39.087Z,17.65
2023-09-28T03:38:41.235Z,17.65
2023-09-28T03:41:43.591Z,17.70
2023-09-28T03:44:45.732Z,17.68
2023-09-28T03:47:49.468Z,17.72
2023-09-28T03:50:52.410Z,17.63
2023-09-28T03:53:55.080Z,17.55
2023-09-28T03:56:57.315Z,17.53
2023-09-28T03:59:59.775Z,17.46
2023-09-28T04:03:02.003Z,17.43
2023-09-28T04:06:04.535Z,17.41
2023-09-28T04:09:08.887Z,17.42
2023-09-28T04:12:13.402Z,17.41
2023-09-28T04:15:17.368Z,17.41
2023-09-28T04:18:19.886Z,17.43
2023-09-28T04:21:22.117Z,17.41
2023-09-28T04:24:25.301Z,17.38
2023-09-28T04:27:27.513Z,17.38
2023-09-28T04:30:30.105Z,17.33
2023-09-28T04:33:32.738Z,17.32
2023-09-28T04:36:35.451Z,17.36
2023-09-28T04:39:37.737Z,17.34
2023-09-28T04:42:40.615Z,17.29
2023-09-28T04:45:42.762Z,17.25
2023-09-28T04:48:45.174Z,17.26
2023-09-28T04:51:47.365Z,17.28
2023-09-28T04:54:51.085Z,17.23
2023-09-28T04:57:54.438Z,17.21
2023-09-28T05:00:59.331Z,17.24
2023-09-28T05:04:01.709Z,17.22
2023-09-28T05:07:05.411Z,17.30
2023-09-28T05:10:08.588Z,17.35
2023-09-28T05:13:13.672Z,17.36
2023-09-28T05:16:15.932Z,17.40
2023-09-28T05:19:19.449Z,17.41
2023-09-28T05:22:22.150Z,17.43
2023-09-28T05:25:24.597Z,17.47
2023-09-28T05:28:26.978Z,17.48
2023-09-28T05:31:29.580Z,17.46
2023-09-28T05:34:32.450Z,17.52
2023-09-28T05:37:34.934Z,17.53
2023-09-28T05:40:37.363Z,17.60
2023-09-28T05:43:39.920Z,17.62
2023-09-28T05:46:42.832Z,17.69
2023-09-28T05:49:45.588Z,17.75
2023-09-28T05:52:49.599Z,17.81
2023-09-28T05:55:52.747Z,17.88
2023-09-28T05:58:55.239Z,17.95
2023-09-28T06:01:58.698Z,18.00
2023-09-28T06:05:01.204Z,18.03
2023-09-28T06:08:07.433Z,18.09
2023-09-28T06:11:12.877Z,18.15
2023-09-28T06:14:16.797Z,18.22
2023-09-28T06:17:19.641Z,18.34
2023-09-28T06:20:22.159Z,18.44
2023-09-28T06:23:24.632Z,18.53
2023-09-28T06:26:41.159Z,18.61
2023-09-28T06:29:45.818Z,18.67
2023-09-28T06:32:48.222Z,18.76
2023-09-28T06:35:50.666Z,18.83
2023-09-28T06:38:53.175Z,18.91
2023-09-28T06:41:56.963Z,18.96
2023-09-28T06:45:05.609Z,19.07
2023-09-28T06:48:19.472Z,19.26
2023-09-28T06:51:23.478Z,19.41
2023-09-28T06:54:26.341Z,19.56
2023-09-28T06:57:29.005Z,19.70
2023-09-28T07:00:32.195Z,19.84
2023-09-28T07:03:34.422Z,19.97
2023-09-28T07:06:36.866Z,20.12
2023-09-28T07:09:51.023Z,20.11
2023-09-28T07:12:57.595Z,20.31
2023-09-28T07:15:59.769Z,20.41
2023-09-28T07:19:05.269Z,20.52
2023-09-28T07:22:07.506Z,20.66
2023-09-28T07:25:10.512Z,20.85
2023-09-28T07:28:13.532Z,21.15
2023-09-28T07:31:16.550Z,21.41
2023-09-28T07:34:18.773Z,21.72
2023-09-28T07:37:22.273Z,21.98
2023-09-28T07:40:44.296Z,22.40
2023-09-28T07:43:55.412Z,22.94
2023-09-28T07:46:57.669Z,24.60
2023-09-28T07:50:00.234Z,26.72
2023-09-28T07:53:02.567Z,28.64
2023-09-28T07:56:05.188Z,30.34
2023-09-28T07:59:07.421Z,31.64
2023-09-28T08:02:12.827Z,32.42
2023-09-28T08:05:15.477Z,33.38
2023-09-28T08:08:18.995Z,34.88
2023-09-28T08:11:21.784Z,35.48
2023-09-28T08:14:24.034Z,35.24
2023-09-28T08:17:26.676Z,35.74
2023-09-28T08:20:31.816Z,36.20
2023-09-28T08:23:34.524Z,36.45
2023-09-28T08:26:37.283Z,36.25
2023-09-28T08:29:40.981Z,34.61
2023-09-28T08:32:44.984Z,33.05
2023-09-28T08:35:48.140Z,32.01
2023-09-28T08:38:50.359Z,31.15
2023-09-28T08:41:55.857Z,31.01
2023-09-28T08:45:05.650Z,30.62
2023-09-28T08:48:10.911Z,30.49
2023-09-28T08:51:13.464Z,30.32
2023-09-28T08:54:17.104Z,30.55
2023-09-28T08:57:19.478Z,30.45
2023-09-28T09:00:24.285Z,30.66
2023-09-28T09:03:28.464Z,30.58
2023-09-28T09:06:32.614Z,30.78
2023-09-28T09:09:40.992Z,30.72
2023-09-28T09:12:43.464Z,30.79
2023-09-28T09:15:48.951Z,31.11
2023-09-28T09:18:52.086Z,31.16
2023-09-28T09:21:55.190Z,31.12
2023-09-28T09:25:02.182Z,30.99
2023-09-28T09:28:05.717Z,31.14
2023-09-28T09:31:08.421Z,31.45
2023-09-28T09:34:20.141Z,31.40
2023-09-28T09:37:22.690Z,31.54
2023-09-28T09:40:27.030Z,31.81
2023-09-28T09:43:36.992Z,31.74
2023-09-28T09:46:40.096Z,31.86
2023-09-28T09:49:42.887Z,31.98
2023-09-28T09:52:45.635Z,31.87
2023-09-28T09:58:57.742Z,31.49
2023-09-28T10:02:00.577Z,31.83
2023-09-28T10:05:05.626Z,32.02
2023-09-28T10:08:09.011Z,32.00
2023-09-28T10:11:11.504Z,32.06
2023-09-28T10:14:16.205Z,32.01
2023-09-28T10:17:20.237Z,32.29
2023-09-28T10:20:23.675Z,31.88
2023-09-28T10:23:27.443Z,32.10
2023-09-28T10:26:32.576Z,32.49
2023-09-28T10:29:35.335Z,32.51
2023-09-28T10:32:41.836Z,32.55
2023-09-28T10:35:45.992Z,32.54
2023-09-28T10:39:06.456Z,32.34
2023-09-28T10:42:12.028Z,32.71
2023-09-28T10:45:14.160Z,32.88
2023-09-28T10:48:16.838Z,32.92
2023-09-28T10:51:22.124Z,32.77
2023-09-28T10:54:28.340Z,33.04
2023-09-28T10:57:33.979Z,33.14
2023-09-28T11:00:38.100Z,32.96
2023-09-28T11:03:41.097Z,32.44
2023-09-28T11:06:44.982Z,32.18
2023-09-28T11:09:47.246Z,31.70
2023-09-28T11:12:49.743Z,32.46
2023-09-28T11:15:51.966Z,32.71
2023-09-28T11:18:55.867Z,32.91
2023-09-28T11:21:58.970Z,32.70
2023-09-28T11:25:03.980Z,32.72
2023-09-28T11:28:09.241Z,32.53
2023-09-28T11:31:16.685Z,32.35
2023-09-28T11:34:31.885Z,32.82
2023-09-28T11:37:35.710Z,32.96
2023-09-28T11:40:41.773Z,32.93
2023-09-28T11:43:46.146Z,32.39
2023-09-28T11:46:51.857Z,31.97
2023-09-28T11:49:55.829Z,32.05
2023-09-28T11:52:58.166Z,32.07
2023-09-28T11:56:04.695Z,32.21
2023-09-28T11:59:10.715Z,32.55
2023-09-28T12:02:13.358Z,32.60
2023-09-28T12:05:16.723Z,32.76
2023-09-28T12:08:19.086Z,32.66
2023-09-28T12:11:21.519Z,32.00
2023-09-28T12:14:27.293Z,31.56
2023-09-28T12:17:30.133Z,31.69
2023-09-28T12:20:33.368Z,31.72
2023-09-28T12:23:36.570Z,32.22
2023-09-28T12:26:38.818Z,32.32
2023-09-28T12:29:41.439Z,32.44
2023-09-28T12:32:46.080Z,32.55
2023-09-28T12:35:50.684Z,32.51
2023-09-28T12:38:53.260Z,32.15
2023-09-28T12:42:00.211Z,32.43
2023-09-28T12:45:11.476Z,32.38
2023-09-28T12:48:20.020Z,32.06
2023-09-28T12:51:22.472Z,32.03
2023-09-28T12:54:26.153Z,31.83
2023-09-28T12:57:30.343Z,31.84
2023-09-28T13:00:34.563Z,31.83
2023-09-28T13:03:40.777Z,31.96
2023-09-28T13:06:46.943Z,31.99
2023-09-28T13:09:51.688Z,31.80
2023-09-28T13:12:55.380Z,31.94
2023-09-28T13:15:57.576Z,31.88
2023-09-28T13:19:00.766Z,31.49
2023-09-28T13:22:26.675Z,31.39
2023-09-28T13:25:30.866Z,31.48
2023-09-28T13:28:33.072Z,31.26
2023-09-28T13:31:37.628Z,31.23
2023-09-28T13:34:41.260Z,31.09
2023-09-28T13:37:44.288Z,31.01
2023-09-28T13:40:54.257Z,30.76
2023-09-28T13:44:04.908Z,30.91
2023-09-28T13:47:08.255Z,30.74
2023-09-28T13:50:11.809Z,30.95
2023-09-28T13:53:14.258Z,30.78
2023-09-28T13:56:17.124Z,30.83
2023-09-28T13:59:20.523Z,30.56
2023-09-28T14:02:27.775Z,30.51
2023-09-28T14:05:31.283Z,30.60
2023-09-28T14:08:35.088Z,30.02
2023-09-28T14:11:41.906Z,29.77
2023-09-28T14:14:45.061Z,29.74
2023-09-28T14:17:49.187Z,29.51
2023-09-28T14:20:51.850Z,29.38
2023-09-28T14:23:54.541Z,29.06
2023-09-28T14:26:57.013Z,28.88
2023-09-28T14:29:59.615Z,28.73
2023-09-28T14:33:02.522Z,28.57
2023-09-28T14:36:07.080Z,28.42
2023-09-28T14:39:11.460Z,28.32
2023-09-28T14:42:14.011Z,28.21
2023-09-28T14:45:28.211Z,28.09
2023-09-28T14:48:30.892Z,28.09
2023-09-28T14:51:33.090Z,27.96
2023-09-28T14:54:36.235Z,27.84
2023-09-28T14:57:38.469Z,27.71
2023-09-28T15:00:41.004Z,27.64
2023-09-28T15:03:43.727Z,27.60
2023-09-28T15:06:46.269Z,27.59
2023-09-28T15:09:49.652Z,27.55
2023-09-28T15:12:52.181Z,27.43
2023-09-28T15:15:54.970Z,27.46
2023-09-28T15:18:57.489Z,27.38
2023-09-28T15:22:00.028Z,27.28
2023-09-28T15:25:05.335Z,27.23
2023-09-28T15:28:09.734Z,27.17
2023-09-28T15:31:12.537Z,27.15
2023-09-28T15:34:19.302Z,27.09
2023-09-28T15:37:25.200Z,27.02
2023-09-28T15:40:28.443Z,26.95
2023-09-28T15:43:34.841Z,26.87
2023-09-28T15:46:39.319Z,26.82
2023-09-28T15:49:44.607Z,26.76
2023-09-28T15:52:46.752Z,26.68
2023-09-28T15:55:49.393Z,26.58
2023-09-28T15:58:51.714Z,26.53
2023-09-28T16:01:58.295Z,26.45
2023-09-28T16:05:01.139Z,26.35
2023-09-28T16:08:08.385Z,26.25
2023-09-28T16:11:11.007Z,26.16
2023-09-28T16:14:13.821Z,26.08
2023-09-28T16:17:24.246Z,26.01
2023-09-28T16:20:26.721Z,25.90
2023-09-28T16:23:29.306Z,25.80
2023-09-28T16:26:31.822Z,25.72
2023-09-28T16:29:34.487Z,25.66
2023-09-28T16:32:36.766Z,25.57
2023-09-28T16:35:39.304Z,25.45
2023-09-28T16:38:41.596Z,25.34
2023-09-28T16:41:44.715Z,25.25
2023-09-28T16:44:46.948Z,25.17
2023-09-28T16:47:49.579Z,25.07
2023-09-28T16:50:51.804Z,24.99
2023-09-28T16:53:54.945Z,24.90
2023-09-28T16:56:57.057Z,24.83
2023-09-28T16:59:59.505Z,24.77
2023-09-28T17:03:01.876Z,24.70
2023-09-28T17:06:04.477Z,24.63
2023-09-28T17:09:06.667Z,24.56
2023-09-28T17:12:09.228Z,24.52
2023-09-28T17:15:11.435Z,24.44
2023-09-28T17:18:20.683Z,24.39
2023-09-28T17:21:23.581Z,24.29
2023-09-28T17:24:26.366Z,24.23
2023-09-28T17:27:28.783Z,24.18
2023-09-28T17:30:31.445Z,24.11
2023-09-28T17:33:33.996Z,24.05
2023-09-28T17:36:36.558Z,24.00
2023-09-28T17:39:38.826Z,23.95
2023-09-28T17:42:41.358Z,23.88
2023-09-28T17:45:45.201Z,23.77
2023-09-28T17:48:50.192Z,23.71
2023-09-28T17:51:52.355Z,23.69
2023-09-28T17:54:57.121Z,23.67
2023-09-28T17:57:59.348Z,23.59
2023-09-28T18:01:04.301Z,23.51
2023-09-28T18:04:06.923Z,23.43
2023-09-28T18:07:10.030Z,23.35
2023-09-28T18:10:12.558Z,23.30
2023-09-28T18:13:14.728Z,23.22
2023-09-28T18:16:17.718Z,23.19
2023-09-28T18:19:19.928Z,23.12
2023-09-28T18:22:22.705Z,23.07
2023-09-28T18:25:26.009Z,23.00
2023-09-28T18:28:31.662Z,22.92
2023-09-28T18:31:33.963Z,22.90
2023-09-28T18:34:36.706Z,22.86
2023-09-28T18:37:38.929Z,22.82
2023-09-28T18:40:42.489Z,22.76
2023-09-28T18:43:45.123Z,22.68
2023-09-28T18:46:48.091Z,22.64
2023-09-28T18:49:50.293Z,22.59
2023-09-28T18:52:52.837Z,22.50
2023-09-28T18:55:58.058Z,22.41
2023-09-28T18:59:00.438Z,22.39
2023-09-28T19:02:04.028Z,22.33
2023-09-28T19:05:07.592Z,22.26
2023-09-28T19:08:10.003Z,22.23
2023-09-28T19:11:12.516Z,22.17
2023-09-28T19:14:18.058Z,22.09
2023-09-28T19:17:22.809Z,22.04
2023-09-28T19:20:26.890Z,22.00
2023-09-28T19:23:30.129Z,21.93
2023-09-28T19:26:35.101Z,21.87
2023-09-28T19:29:39.067Z,21.83
2023-09-28T19:32:41.369Z,21.78
2023-09-28T19:35:44.401Z,21.75
2023-09-28T19:38:49.840Z,21.76
2023-09-28T19:41:52.585Z,21.70
2023-09-28T19:44:54.818Z,21.64
2023-09-28T19:47:57.535Z,21.54
2023-09-28T19:50:59.824Z,21.54
2023-09-28T19:54:02.412Z,21.52
2023-09-28T19:57:05.840Z,21.47
2023-09-28T20:00:11.513Z,21.46
2023-09-28T20:03:14.182Z,21.45
2023-09-28T20:06:18.630Z,21.41
2023-09-28T20:09:22.708Z,21.39
2023-09-28T20:12:32.951Z,21.37
2023-09-28T20:15:37.958Z,21.34
2023-09-28T20:18:47.587Z,21.29
2023-09-28T20:21:59.667Z,21.26
2023-09-28T20:25:01.877Z,21.22
2023-09-28T20:28:05.131Z,21.16
2023-09-28T20:31:07.460Z,21.13
2023-09-28T20:34:09.917Z,21.10
2023-09-28T20:37:12.129Z,21.09
2023-09-28T20:40:14.727Z,21.05
2023-09-28T20:43:18.142Z,20.98
2023-09-28T20:46:22.276Z,20.93
2023-09-28T20:49:24.750Z,20.94
2023-09-28T20:52:27.388Z,20.87
2023-09-28T20:55:32.899Z,20.81
2023-09-28T20:58:35.404Z,20.81
2023-09-28T21:01:41.583Z,20.73
2023-09-28T21:04:45.949Z,20.66
2023-09-28T21:07:50.446Z,20.65
2023-09-28T21:10:52.886Z,20.59
2023-09-28T21:13:57.951Z,20.58
2023-09-28T21:17:00.424Z,20.56
2023-09-28T21:20:05.533Z,20.48
2023-09-28T21:23:08.214Z,20.43
2023-09-28T21:26:10.441Z,20.36
2023-09-28T21:29:14.740Z,20.27
2023-09-28T21:32:17.333Z,20.25
2023-09-28T21:35:19.749Z,20.22
2023-09-28T21:38:28.527Z,20.16
2023-09-28T21:41:33.230Z,20.13
2023-09-28T21:44:37.543Z,20.08
2023-09-28T21:47:40.184Z,20.05
2023-09-28T21:50:44.563Z,20.00
2023-09-28T21:53:50.912Z,19.98
2023-09-28T21:56:54.952Z,19.90
2023-09-28T21:59:57.399Z,19.89
2023-09-28T22:03:00.727Z,19.89
2023-09-28T22:06:03.477Z,19.86
2023-09-28T22:09:06.553Z,19.78
2023-09-28T22:12:09.038Z,19.78
2023-09-28T22:15:12.878Z,19.73
2023-09-28T22:18:18.417Z,19.69
2023-09-28T22:21:23.150Z,19.65
2023-09-28T22:24:25.963Z,19.63
2023-09-28T22:27:32.053Z,19.59
2023-09-28T22:30:34.594Z,19.60
2023-09-28T22:33:37.032Z,19.56
2023-09-28T22:36:44.791Z,19.52
2023-09-28T22:39:47.049Z,19.51
2023-09-28T22:42:49.480Z,19.46
2023-09-28T22:45:51.722Z,19.48
2023-09-28T22:48:58.083Z,19.36
2023-09-28T22:52:02.427Z,19.34
2023-09-28T22:55:05.919Z,19.29
2023-09-28T22:58:09.161Z,19.26
2023-09-28T23:01:11.691Z,19.26
2023-09-28T23:04:17.951Z,19.18
2023-09-28T23:07:21.215Z,19.21
2023-09-28T23:10:23.414Z,19.15
2023-09-28T23:13:25.881Z,19.15
2023-09-28T23:16:28.379Z,19.12
2023-09-28T23:19:34.987Z,19.04
2023-09-28T23:22:43.143Z,19.01
2023-09-28T23:25:45.619Z,19.02
2023-09-28T23:28:48.714Z,18.99
2023-09-28T23:32:11.145Z,18.95
2023-09-28T23:35:17.679Z,18.95
2023-09-28T23:38:21.126Z,18.92
2023-09-28T23:41:23.562Z,18.82
2023-09-28T23:44:26.901Z,18.85
2023-09-28T23:47:29.193Z,18.83
2023-09-28T23:50:34.596Z,18.80
2023-09-28T23:53:36.896Z,18.76
2023-09-28T23:56:42.743Z,18.69
2023-09-28T23:59:45.052Z,18.70
